createdAt,value
2024-02-03T00:02:23.887Z,10.80
2024-02-03T00:04:52.237Z,9.97
2024-02-03T00:07:20.805Z,9.65
2024-02-03T00:09:49.357Z,10.24
2024-02-03T00:12:21.048Z,10.74
2024-02-03T00:14:49.514Z,11.21
2024-02-03T00:17:17.678Z,11.67
2024-02-03T00:19:46.167Z,11.98
2024-02-03T00:22:15.327Z,12.00
2024-02-03T00:24:43.796Z,11.19
2024-02-03T00:27:12.041Z,10.26
2024-02-03T00:29:40.157Z,9.71
2024-02-03T00:32:08.453Z,10.09
2024-02-03T00:34:36.923Z,10.63
2024-02-03T00:37:05.625Z,10.96
2024-02-03T00:39:33.796Z,11.16
2024-02-03T00:42:02.010Z,11.37
2024-02-03T00:44:30.219Z,11.52
2024-02-03T00:46:58.438Z,11.52
2024-02-03T00:49:26.753Z,11.50
2024-02-03T00:51:55.970Z,11.51
2024-02-03T00:54:24.554Z,11.50
2024-02-03T00:56:52.716Z,11.56
2024-02-03T00:59:21.187Z,11.61
2024-02-03T01:01:49.432Z,11.71
2024-02-03T01:04:18.196Z,11.73
2024-02-03T01:06:46.518Z,11.76
2024-02-03T01:09:19.044Z,11.73
2024-02-03T01:11:47.485Z,11.71
2024-02-03T01:14:15.594Z,11.72
2024-02-03T01:16:45.575Z,11.88
2024-02-03T01:19:13.862Z,12.05
2024-02-03T01:21:42.665Z,12.33
2024-02-03T01:24:10.964Z,12.11
2024-02-03T01:26:39.128Z,11.19
2024-02-03T01:29:07.474Z,10.35
2024-02-03T01:31:35.654Z,10.08
2024-02-03T01:34:04.074Z,10.86
2024-02-03T01:36:32.619Z,11.58
2024-02-03T01:39:00.885Z,12.02
2024-02-03T01:41:29.149Z,12.29
2024-02-03T01:43:57.628Z,12.60
2024-02-03T01:46:26.008Z,12.55
2024-02-03T01:48:54.595Z,11.64
2024-02-03T01:51:24.826Z,10.69
2024-02-03T01:53:54.349Z,10.77
2024-02-03T01:56:23.308Z,12.06
2024-02-03T01:58:51.492Z,13.14
2024-02-03T02:01:20.002Z,13.84
2024-02-03T02:03:48.345Z,13.84
2024-02-03T02:06:16.603Z,12.83
2024-02-03T02:08:44.906Z,11.75
2024-02-03T02:11:13.806Z,10.91
2024-02-03T02:13:41.965Z,10.78
2024-02-03T02:16:10.233Z,12.13
2024-02-03T02:18:38.852Z,13.08
2024-02-03T02:21:07.118Z,13.64
2024-02-03T02:23:35.477Z,13.64
2024-02-03T02:26:04.362Z,12.58
2024-02-03T02:28:33.576Z,11.56
2024-02-03T02:31:01.739Z,11.78
2024-02-03T02:33:30.049Z,12.90
2024-02-03T02:35:58.211Z,13.12
2024-02-03T02:38:26.465Z,12.41
2024-02-03T02:40:54.698Z,11.45
2024-02-03T02:43:23.421Z,10.82
2024-02-03T02:45:51.670Z,11.09
2024-02-03T02:48:20.293Z,11.63
2024-02-03T02:50:48.769Z,11.93
2024-02-03T02:53:16.828Z,12.07
2024-02-03T02:55:45.422Z,12.11
2024-02-03T02:58:13.606Z,12.14
2024-02-03T03:00:41.984Z,12.30
2024-02-03T03:03:10.198Z,12.44
2024-02-03T03:05:38.515Z,12.45
2024-02-03T03:08:06.689Z,12.45
2024-02-03T03:10:34.964Z,12.52
2024-02-03T03:13:03.475Z,12.52
2024-02-03T03:15:31.631Z,12.49
2024-02-03T03:18:00.107Z,12.44
2024-02-03T03:20:28.494Z,12.44
2024-02-03T03:22:56.903Z,12.45
2024-02-03T03:25:25.047Z,12.41
2024-02-03T03:27:53.316Z,12.43
2024-02-03T03:30:21.515Z,12.43
2024-02-03T03:32:52.188Z,12.47
2024-02-03T03:35:21.161Z,12.48
2024-02-03T03:37:49.314Z,12.54
2024-02-03T03:40:17.450Z,12.63
2024-02-03T03:42:49.344Z,12.66
2024-02-03T03:45:20.806Z,12.63
2024-02-03T03:47:49.093Z,12.69
2024-02-03T03:50:17.320Z,12.75
2024-02-03T03:52:45.687Z,12.81
2024-02-03T03:55:13.912Z,12.86
2024-02-03T03:57:42.341Z,12.86
2024-02-03T04:00:12.509Z,12.80
2024-02-03T04:02:41.151Z,12.87
2024-02-03T04:05:09.938Z,12.84
2024-02-03T04:07:38.119Z,12.82
2024-02-03T04:10:06.832Z,12.74
2024-02-03T04:12:35.093Z,12.64
2024-02-03T04:15:03.494Z,12.73
2024-02-03T04:17:31.838Z,12.82
2024-02-03T04:20:00.144Z,12.81
2024-02-03T04:22:28.685Z,12.78
2024-02-03T04:24:57.208Z,12.80
2024-02-03T04:27:25.679Z,12.74
2024-02-03T04:29:53.835Z,12.62
2024-02-03T04:32:22.118Z,12.54
2024-02-03T04:34:50.203Z,12.76
2024-02-03T04:37:18.801Z,13.23
2024-02-03T04:39:47.062Z,13.50
2024-02-03T04:42:15.789Z,13.65
2024-02-03T04:44:43.983Z,13.56
2024-02-03T04:47:12.432Z,13.55
2024-02-03T04:49:40.726Z,13.71
2024-02-03T04:52:09.226Z,13.97
2024-02-03T04:54:37.603Z,14.15
2024-02-03T04:57:06.396Z,14.23
2024-02-03T04:59:34.434Z,14.38
2024-02-03T05:02:02.572Z,14.20
2024-02-03T05:04:30.824Z,13.20
2024-02-03T05:06:59.153Z,12.48
2024-02-03T05:09:27.700Z,13.24
2024-02-03T05:11:56.175Z,13.61
2024-02-03T05:14:24.323Z,13.97
2024-02-03T05:16:52.710Z,14.26
2024-02-03T05:19:20.948Z,14.30
2024-02-03T05:21:49.286Z,14.67
2024-02-03T05:24:17.716Z,14.79
2024-02-03T05:26:46.023Z,13.70
2024-02-03T05:29:14.330Z,12.62
2024-02-03T05:31:42.453Z,13.35
2024-02-03T05:34:10.670Z,14.00
2024-02-03T05:36:38.963Z,14.08
2024-02-03T05:39:08.314Z,14.41
2024-02-03T05:41:36.554Z,14.77
2024-02-03T05:44:05.017Z,14.80
2024-02-03T05:46:33.240Z,13.72
2024-02-03T05:49:01.464Z,12.67
2024-02-03T05:51:29.930Z,12.34
2024-02-03T05:54:01.060Z,13.64
2024-02-03T05:56:29.303Z,14.57
2024-02-03T05:59:13.697Z,14.81
2024-02-03T06:01:45.991Z,14.03
2024-02-03T06:04:14.086Z,12.84
2024-02-03T06:06:42.395Z,12.43
2024-02-03T06:09:10.597Z,13.56
2024-02-03T06:11:38.627Z,14.46
2024-02-03T06:14:06.739Z,14.86
2024-02-03T06:16:34.984Z,14.60
2024-02-03T06:19:03.672Z,13.49
2024-02-03T06:21:32.092Z,12.45
2024-02-03T06:24:00.337Z,12.55
2024-02-03T06:26:32.871Z,13.88
2024-02-03T06:29:01.163Z,14.64
2024-02-03T06:31:29.386Z,14.63
2024-02-03T06:33:57.803Z,14.88
2024-02-03T06:36:26.032Z,15.08
2024-02-03T06:38:54.370Z,14.12
2024-02-03T06:41:23.161Z,13.04
2024-02-03T06:43:52.277Z,12.69
2024-02-03T06:46:20.543Z,13.37
2024-02-03T06:48:48.834Z,14.05
2024-02-03T06:51:17.188Z,14.57
2024-02-03T06:53:45.476Z,14.86
2024-02-03T06:56:13.746Z,14.82
2024-02-03T06:58:42.056Z,13.88
2024-02-03T07:01:10.231Z,13.12
2024-02-03T07:03:38.808Z,13.72
2024-02-03T07:06:08.011Z,14.48
2024-02-03T07:08:36.172Z,14.81
2024-02-03T07:11:04.535Z,15.08
2024-02-03T07:13:32.825Z,15.01
2024-02-03T07:16:01.200Z,14.05
2024-02-03T07:18:29.488Z,13.05
2024-02-03T07:20:58.239Z,12.97
2024-02-03T07:23:26.511Z,13.93
2024-02-03T07:25:54.698Z,14.58
2024-02-03T07:28:22.859Z,15.00
2024-02-03T07:30:51.060Z,14.97
2024-02-03T07:33:19.526Z,14.04
2024-02-03T07:35:47.835Z,13.06
2024-02-03T07:38:16.111Z,12.67
2024-02-03T07:40:44.245Z,13.85
2024-02-03T07:43:12.207Z,14.89
2024-02-03T07:45:40.163Z,15.40
2024-02-03T07:48:08.554Z,15.33
2024-02-03T07:50:36.616Z,14.42
2024-02-03T07:53:04.641Z,13.43
2024-02-03T07:55:32.583Z,13.16
2024-02-03T07:58:00.566Z,14.30
2024-02-03T08:00:28.953Z,15.22
2024-02-03T08:02:57.084Z,15.48
2024-02-03T08:05:25.599Z,14.46
2024-02-03T08:07:54.656Z,13.38
2024-02-03T08:10:24.178Z,13.10
2024-02-03T08:12:52.261Z,14.49
2024-02-03T08:15:21.044Z,15.48
2024-02-03T08:17:49.238Z,15.67
2024-02-03T08:20:17.536Z,14.69
2024-02-03T08:22:45.771Z,13.61
2024-02-03T08:25:14.041Z,13.18
2024-02-03T08:27:42.242Z,14.30
2024-02-03T08:30:11.590Z,15.19
2024-02-03T08:32:39.812Z,15.48
2024-02-03T08:37:39.727Z,13.52
2024-02-03T08:40:08.600Z,13.12
2024-02-03T08:42:36.789Z,14.19
2024-02-03T08:45:05.584Z,15.21
2024-02-03T08:47:33.661Z,15.27
2024-02-03T08:50:02.623Z,14.37
2024-02-03T08:52:30.715Z,13.41
2024-02-03T08:55:00.136Z,13.09
2024-02-03T08:57:28.647Z,14.03
2024-02-03T08:59:57.061Z,14.73
2024-02-03T09:02:25.346Z,15.17
2024-02-03T09:04:54.109Z,15.47
2024-02-03T09:07:22.229Z,15.02
2024-02-03T09:09:50.470Z,13.94
2024-02-03T09:12:18.921Z,13.44
2024-02-03T09:14:47.438Z,14.27
2024-02-03T09:17:15.536Z,15.02
2024-02-03T09:19:43.918Z,15.49
2024-02-03T09:22:12.154Z,15.83
2024-02-03T09:24:41.019Z,15.64
2024-02-03T09:27:09.322Z,14.67
2024-02-03T09:29:44.222Z,13.78
2024-02-03T09:32:12.321Z,13.85
2024-02-03T09:34:47.360Z,14.79
2024-02-03T09:39:47.299Z,15.70
2024-02-03T09:42:16.771Z,15.63
2024-02-03T09:44:46.197Z,14.76
2024-02-03T09:47:17.742Z,13.77
2024-02-03T09:49:46.350Z,13.54
2024-02-03T09:52:16.468Z,14.45
2024-02-03T09:54:48.948Z,15.34
2024-02-03T09:57:17.559Z,15.96
2024-02-03T09:59:52.104Z,16.08
2024-02-03T10:02:20.611Z,15.23
2024-02-03T10:04:49.352Z,14.39
2024-02-03T10:07:20.881Z,14.70
2024-02-03T10:12:22.911Z,16.14
2024-02-03T10:15:02.148Z,15.63
2024-02-03T10:17:30.255Z,14.76
2024-02-03T10:19:59.494Z,14.17
2024-02-03T10:22:28.323Z,14.09
2024-02-03T10:25:07.637Z,15.22
2024-02-03T10:27:35.861Z,16.02
2024-02-03T10:30:04.337Z,16.16
2024-02-03T10:32:32.657Z,15.35
2024-02-03T10:35:02.361Z,14.50
2024-02-03T10:37:30.694Z,13.99
2024-02-03T10:39:59.453Z,14.96
2024-02-03T10:42:32.331Z,15.90
2024-02-03T10:45:03.345Z,16.02
2024-02-03T10:47:33.623Z,15.17
2024-02-03T10:50:05.611Z,14.33
2024-02-03T10:52:34.775Z,13.67
2024-02-03T10:55:04.863Z,13.53
2024-02-03T10:57:33.257Z,14.44
2024-02-03T11:00:06.229Z,15.27
2024-02-03T11:02:35.676Z,15.85
2024-02-03T11:05:03.990Z,15.79
2024-02-03T11:07:32.859Z,14.98
2024-02-03T11:10:05.599Z,14.11
2024-02-03T11:12:38.332Z,13.69
2024-02-03T11:15:16.210Z,14.45
2024-02-03T11:17:45.750Z,15.25
2024-02-03T11:20:21.626Z,15.60
2024-02-03T11:22:54.287Z,15.68
2024-02-03T11:25:22.399Z,14.85
2024-02-03T11:27:52.980Z,13.97
2024-02-03T11:30:21.235Z,13.58
2024-02-03T11:32:49.485Z,14.19
2024-02-03T11:35:19.038Z,14.84
2024-02-03T11:37:47.565Z,15.30
2024-02-03T11:40:16.193Z,15.54
2024-02-03T11:42:45.094Z,15.56
2024-02-03T11:45:16.428Z,14.80
2024-02-03T11:47:45.042Z,13.99
2024-02-03T11:50:13.066Z,13.67
2024-02-03T11:52:47.744Z,14.59
2024-02-03T11:55:16.045Z,15.33
2024-02-03T11:57:44.289Z,15.70
2024-02-03T12:00:14.643Z,15.90
2024-02-03T12:02:43.134Z,15.91
2024-02-03T12:05:14.561Z,15.23
2024-02-03T12:07:43.855Z,14.46
2024-02-03T12:10:14.301Z,14.07
2024-02-03T12:12:42.532Z,14.82
2024-02-03T12:15:12.265Z,15.85
2024-02-03T12:17:41.537Z,16.23
2024-02-03T12:20:26.087Z,15.61
2024-02-03T12:22:54.514Z,14.80
2024-02-03T12:25:23.907Z,14.71
2024-02-03T12:27:53.647Z,15.40
2024-02-03T12:30:23.973Z,15.90
2024-02-03T12:32:52.492Z,16.13
2024-02-03T12:35:20.706Z,16.17
2024-02-03T12:37:48.862Z,15.53
2024-02-03T12:40:16.910Z,14.76
2024-02-03T12:42:45.123Z,14.27
2024-02-03T12:45:13.786Z,14.56
2024-02-03T12:47:45.799Z,15.04
2024-02-03T12:50:14.145Z,15.54
2024-02-03T12:52:43.288Z,16.00
2024-02-03T12:55:11.627Z,16.18
2024-02-03T12:57:39.935Z,16.27
2024-02-03T13:00:09.065Z,15.57
2024-02-03T13:02:37.683Z,14.74
2024-02-03T13:05:06.265Z,14.12
2024-02-03T13:07:34.544Z,13.98
2024-02-03T13:10:02.716Z,14.91
2024-02-03T13:12:31.733Z,15.49
2024-02-03T13:15:00.124Z,15.88
2024-02-03T13:17:30.386Z,16.09
2024-02-03T13:19:59.509Z,15.50
2024-02-03T13:22:27.840Z,14.68
2024-02-03T13:24:56.091Z,14.31
2024-02-03T13:27:24.531Z,15.03
2024-02-03T13:29:53.417Z,15.72
2024-02-03T13:32:22.023Z,15.96
2024-02-03T13:34:50.951Z,15.31
2024-02-03T13:37:19.561Z,14.53
2024-02-03T13:39:47.991Z,14.13
2024-02-03T13:42:17.553Z,14.79
2024-02-03T13:44:45.953Z,15.55
2024-02-03T13:47:14.025Z,15.84
2024-02-03T13:49:42.321Z,15.18
2024-02-03T13:52:13.985Z,14.38
2024-02-03T13:54:42.465Z,13.72
2024-02-03T13:57:10.647Z,13.52
2024-02-03T13:59:38.943Z,14.38
2024-02-03T14:02:07.565Z,15.26
2024-02-03T14:04:35.992Z,15.65
2024-02-03T14:07:05.352Z,14.98
2024-02-03T14:09:33.586Z,14.23
2024-02-03T14:12:04.894Z,13.69
2024-02-03T14:14:33.185Z,13.51
2024-02-03T14:17:01.429Z,14.33
2024-02-03T14:19:29.731Z,15.09
2024-02-03T14:21:58.315Z,15.42
2024-02-03T14:24:26.930Z,14.85
2024-02-03T14:26:55.306Z,14.18
2024-02-03T14:29:23.529Z,13.59
2024-02-03T14:31:51.588Z,13.35
2024-02-03T14:34:19.816Z,13.99
2024-02-03T14:36:48.609Z,14.64
2024-02-03T14:39:20.338Z,15.12
2024-02-03T14:41:48.988Z,15.28
2024-02-03T14:44:18.062Z,14.64
2024-02-03T14:46:46.570Z,13.89
2024-02-03T14:49:15.089Z,13.56
2024-02-03T14:51:43.940Z,14.11
2024-02-03T14:54:13.316Z,14.68
2024-02-03T14:56:42.056Z,15.01
2024-02-03T14:59:10.201Z,15.24
2024-02-03T15:01:38.482Z,15.44
2024-02-03T15:04:08.945Z,15.53
2024-02-03T15:06:37.931Z,15.61
2024-02-03T15:09:09.289Z,15.59
2024-02-03T15:11:37.654Z,15.41
2024-02-03T15:14:06.202Z,15.19
2024-02-03T15:16:34.393Z,15.08
2024-02-03T15:19:02.600Z,15.04
2024-02-03T15:21:31.379Z,14.89
2024-02-03T15:23:59.682Z,14.82
2024-02-03T15:26:28.100Z,14.74
2024-02-03T15:28:56.702Z,14.73
2024-02-03T15:31:27.039Z,14.66
2024-02-03T15:33:55.683Z,14.64
2024-02-03T15:36:24.264Z,14.70
2024-02-03T15:38:52.549Z,14.79
2024-02-03T15:41:20.882Z,14.78
2024-02-03T15:43:49.047Z,14.74
2024-02-03T15:46:18.111Z,14.78
2024-02-03T15:48:46.539Z,14.70
2024-02-03T15:51:14.830Z,14.00
2024-02-03T15:53:43.170Z,13.25
2024-02-03T15:56:11.717Z,12.82
2024-02-03T15:58:40.462Z,13.22
2024-02-03T16:01:08.756Z,13.77
2024-02-03T16:03:37.477Z,14.17
2024-02-03T16:06:06.338Z,14.42
2024-02-03T16:08:34.557Z,14.61
2024-02-03T16:11:03.216Z,14.75
2024-02-03T16:13:31.397Z,14.80
2024-02-03T16:16:00.259Z,14.07
2024-02-03T16:18:28.993Z,13.29
2024-02-03T16:20:57.144Z,12.67
2024-02-03T16:23:25.356Z,12.19
2024-02-03T16:25:53.621Z,11.87
2024-02-03T16:28:21.800Z,12.54
2024-02-03T16:30:49.971Z,13.41
2024-02-03T16:33:18.404Z,13.98
2024-02-03T16:35:46.713Z,13.37
2024-02-03T16:38:15.119Z,12.64
2024-02-03T16:40:43.396Z,12.12
2024-02-03T16:43:11.827Z,11.70
2024-02-03T16:45:40.531Z,11.55
2024-02-03T16:48:09.006Z,12.14
2024-02-03T16:50:37.187Z,12.79
2024-02-03T16:53:05.457Z,13.26
2024-02-03T16:55:36.081Z,13.05
2024-02-03T16:58:04.570Z,12.41
2024-02-03T17:00:38.614Z,11.88
2024-02-03T17:03:10.248Z,11.63
2024-02-03T17:05:41.899Z,12.13
2024-02-03T17:08:12.986Z,12.69
2024-02-03T17:10:41.448Z,13.09
2024-02-03T17:13:09.951Z,13.39
2024-02-03T17:15:38.456Z,13.49
2024-02-03T17:18:07.150Z,12.97
2024-02-03T17:20:35.305Z,12.28
2024-02-03T17:23:03.598Z,11.71
2024-02-03T17:25:34.762Z,11.46
2024-02-03T17:28:03.256Z,11.91
2024-02-03T17:30:31.768Z,12.41
2024-02-03T17:33:00.117Z,12.79
2024-02-03T17:35:28.661Z,13.03
2024-02-03T17:37:56.934Z,13.14
2024-02-03T17:40:25.127Z,12.66
2024-02-03T17:42:53.400Z,11.92
2024-02-03T17:45:24.571Z,11.36
2024-02-03T17:47:53.462Z,11.10
2024-02-03T17:50:21.686Z,11.53
2024-02-03T17:52:49.985Z,12.12
2024-02-03T17:55:18.446Z,12.54
2024-02-03T17:57:47.297Z,12.84
2024-02-03T18:00:16.399Z,13.11
2024-02-03T18:02:44.731Z,13.36
2024-02-03T18:05:13.226Z,13.45
2024-02-03T18:07:41.399Z,12.89
2024-02-03T18:10:10.392Z,12.25
2024-02-03T18:12:38.673Z,11.73
2024-02-03T18:15:08.138Z,11.48
2024-02-03T18:17:36.661Z,11.96
2024-02-03T18:20:05.430Z,12.55
2024-02-03T18:22:33.790Z,12.93
2024-02-03T18:25:02.662Z,13.16
2024-02-03T18:27:30.964Z,13.32
2024-02-03T18:29:59.129Z,13.41
2024-02-03T18:32:27.716Z,13.49
2024-02-03T18:34:55.878Z,13.57
2024-02-03T18:37:24.155Z,13.51
2024-02-03T18:39:54.037Z,12.86
2024-02-03T18:42:24.712Z,12.19
2024-02-03T18:44:53.080Z,11.61
2024-02-03T18:47:21.492Z,11.61
2024-02-03T18:49:49.786Z,12.10
2024-02-03T18:52:18.116Z,12.58
2024-02-03T18:54:46.526Z,12.65
2024-02-03T18:57:15.080Z,12.01
2024-02-03T18:59:43.146Z,11.36
2024-02-03T19:02:11.215Z,10.87
2024-02-03T19:04:39.369Z,10.65
2024-02-03T19:07:07.559Z,11.16
2024-02-03T19:09:38.010Z,11.79
2024-02-03T19:12:09.426Z,12.25
2024-02-03T19:14:38.862Z,12.60
2024-02-03T19:17:07.125Z,12.78
2024-02-03T19:19:37.463Z,12.80
2024-02-03T19:22:05.844Z,12.22
2024-02-03T19:24:34.256Z,11.57
2024-02-03T19:27:02.582Z,11.03
2024-02-03T19:29:30.785Z,10.76
2024-02-03T19:31:58.920Z,11.18
2024-02-03T19:34:28.300Z,11.74
2024-02-03T19:36:57.673Z,12.14
2024-02-03T19:39:26.854Z,12.40
2024-02-03T19:41:54.990Z,12.32
2024-02-03T19:44:23.078Z,11.67
2024-02-03T19:46:51.437Z,11.06
2024-02-03T19:49:20.658Z,10.59
2024-02-03T19:51:49.419Z,10.33
2024-02-03T19:54:18.248Z,10.80
2024-02-03T19:56:46.697Z,11.39
2024-02-03T19:59:14.969Z,11.88
2024-02-03T20:01:43.445Z,11.71
2024-02-03T20:04:12.022Z,11.15
2024-02-03T20:06:40.402Z,10.68
2024-02-03T20:09:10.335Z,10.50
2024-02-03T20:11:38.697Z,11.02
2024-02-03T20:14:06.793Z,11.69
2024-02-03T20:16:35.103Z,12.22
2024-02-03T20:19:03.497Z,12.61
2024-02-03T20:21:31.876Z,12.56
2024-02-03T20:24:00.190Z,11.89
2024-02-03T20:26:28.342Z,11.30
2024-02-03T20:28:56.780Z,10.88
2024-02-03T20:31:25.241Z,10.73
2024-02-03T20:33:53.911Z,11.25
2024-02-03T20:36:22.691Z,11.85
2024-02-03T20:38:50.973Z,12.24
2024-02-03T20:41:25.825Z,12.59
2024-02-03T20:43:54.060Z,12.76
2024-02-03T20:46:22.365Z,12.26
2024-02-03T20:48:51.007Z,11.72
2024-02-03T20:51:19.637Z,11.21
2024-02-03T20:53:48.026Z,10.93
2024-02-03T20:56:20.391Z,11.34
2024-02-03T20:58:48.833Z,11.91
2024-02-03T21:01:17.581Z,12.32
2024-02-03T21:03:46.413Z,12.64
2024-02-03T21:06:16.785Z,12.93
2024-02-03T21:08:45.436Z,12.71
2024-02-03T21:11:13.867Z,12.00
2024-02-03T21:13:42.108Z,11.41
2024-02-03T21:16:10.522Z,11.04
2024-02-03T21:18:38.892Z,11.34
2024-02-03T21:21:07.303Z,11.89
2024-02-03T21:23:35.654Z,12.24
2024-02-03T21:26:03.795Z,12.47
2024-02-03T21:28:31.945Z,12.66
2024-02-03T21:31:00.339Z,12.81
2024-02-03T21:33:29.155Z,13.02
2024-02-03T21:35:57.570Z,13.09
2024-02-03T21:38:25.918Z,13.16
2024-02-03T21:40:54.152Z,13.13
2024-02-03T21:43:22.346Z,12.53
2024-02-03T21:45:50.416Z,11.80
2024-02-03T21:48:19.071Z,11.25
2024-02-03T21:50:47.473Z,11.38
2024-02-03T21:53:15.551Z,11.85
2024-02-03T21:55:43.612Z,12.20
2024-02-03T21:58:11.834Z,12.44
2024-02-03T22:00:42.255Z,12.67
2024-02-03T22:03:10.346Z,12.91
2024-02-03T22:05:38.672Z,13.04
2024-02-03T22:08:07.862Z,13.16
2024-02-03T22:10:35.918Z,13.25
2024-02-03T22:13:04.259Z,12.94
2024-02-03T22:15:32.460Z,12.20
2024-02-03T22:18:01.218Z,11.57
2024-02-03T22:20:29.176Z,11.19
2024-02-03T22:22:57.203Z,11.51
2024-02-03T22:25:25.471Z,11.94
2024-02-03T22:27:53.708Z,12.23
2024-02-03T22:30:22.919Z,12.41
2024-02-03T22:32:51.203Z,12.50
2024-02-03T22:35:19.803Z,12.59
2024-02-03T22:37:48.287Z,12.67
2024-02-03T22:40:16.791Z,12.77
2024-02-03T22:42:46.420Z,12.79
2024-02-03T22:45:14.638Z,12.78
2024-02-03T22:47:42.892Z,12.79
2024-02-03T22:50:11.822Z,12.82
2024-02-03T22:52:42.027Z,12.85
2024-02-03T22:55:10.576Z,12.88
2024-02-03T22:57:39.017Z,12.75
2024-02-03T23:00:17.601Z,12.14
2024-02-03T23:02:45.885Z,11.47
2024-02-03T23:05:16.953Z,10.99
2024-02-03T23:07:45.106Z,10.87
2024-02-03T23:10:13.486Z,11.30
2024-02-03T23:12:43.782Z,11.71
2024-02-03T23:15:11.974Z,11.96
2024-02-03T23:17:44.977Z,12.19
2024-02-03T23:20:17.540Z,12.38
2024-02-03T23:22:46.203Z,12.55
2024-02-03T23:25:14.465Z,12.67
2024-02-03T23:27:43.449Z,12.80
2024-02-03T23:30:12.813Z,12.89
2024-02-03T23:32:41.677Z,12.93
2024-02-03T23:35:10.379Z,12.54
2024-02-03T23:37:38.790Z,11.80
2024-02-03T23:40:08.354Z,11.17
2024-02-03T23:42:36.553Z,10.69
2024-02-03T23:45:05.625Z,10.41
2024-02-03T23:47:33.825Z,10.82
2024-02-03T23:50:02.384Z,11.28
2024-02-03T23:52:30.867Z,11.63
2024-02-03T23:54:59.103Z,11.78
2024-02-03T23:57:27.447Z,11.88
2024-02-03T23:59:56.732Z,11.37
